sensor_id;sensor_type;location;lat;lon;timestamp;P1;durP1;ratioP1;P2;durP2;ratioP2
72408;SDS011;60402;48.082;11.628;2022-10-17T00:02:22;5.28;;;1.50;;
72408;SDS011;60402;48.082;11.628;2022-10-17T00:04:48;3.63;;;1.40;;
72408;SDS011;60402;48.082;11.628;2022-10-17T00:07:13;3.25;;;1.40;;
72408;SDS011;60402;48.082;11.628;2022-10-17T00:09:41;4.95;;;1.40;;
72408;SDS011;60402;48.082;11.628;2022-10-17T00:12:07;4.65;;;1.63;;
72408;SDS011;60402;48.082;11.628;2022-10-17T00:14:32;5.95;;;1.63;;
72408;SDS011;60402;48.082;11.628;2022-10-17T00:16:58;5.00;;;1.75;;
72408;SDS011;60402;48.082;11.628;2022-10-17T00:19:23;3.28;;;1.50;;
72408;SDS011;60402;48.082;11.628;2022-10-17T00:21:49;4.18;;;1.63;;
72408;SDS011;60402;48.082;11.628;2022-10-17T00:24:14;5.88;;;1.67;;
72408;SDS011;60402;48.082;11.628;2022-10-17T00:26:39;4.20;;;1.60;;
72408;SDS011;60402;48.082;11.628;2022-10-17T00:29:05;5.10;;;1.90;;
72408;SDS011;60402;48.082;11.628;2022-10-17T00:31:30;5.15;;;1.60;;
72408;SDS011;60402;48.082;11.628;2022-10-17T00:33:55;2.55;;;1.10;;
72408;SDS011;60402;48.082;11.628;2022-10-17T00:36:21;7.20;;;1.48;;
72408;SDS011;60402;48.082;11.628;2022-10-17T00:38:50;3.20;;;1.45;;
72408;SDS011;60402;48.082;11.628;2022-10-17T00:46:22;4.15;;;1.25;;
72408;SDS011;60402;48.082;11.628;2022-10-17T00:48:50;3.80;;;1.23;;
72408;SDS011;60402;48.082;11.628;2022-10-17T00:51:17;5.65;;;2.00;;
72408;SDS011;60402;48.082;11.628;2022-10-17T00:53:47;3.30;;;1.40;;
72408;SDS011;60402;48.082;11.628;2022-10-17T00:56:13;3.83;;;1.40;;
72408;SDS011;60402;48.082;11.628;2022-10-17T00:58:39;3.40;;;1.67;;
72408;SDS011;60402;48.082;11.628;2022-10-17T01:01:04;3.92;;;1.45;;
72408;SDS011;60402;48.082;11.628;2022-10-17T01:03:30;4.13;;;1.60;;
72408;SDS011;60402;48.082;11.628;2022-10-17T01:05:55;4.95;;;1.45;;
72408;SDS011;60402;48.082;11.628;2022-10-17T01:08:20;3.40;;;1.30;;
72408;SDS011;60402;48.082;11.628;2022-10-17T01:13:33;2.63;;;1.17;;
72408;SDS011;60402;48.082;11.628;2022-10-17T01:16:14;4.40;;;1.50;;
72408;SDS011;60402;48.082;11.628;2022-10-17T01:22:12;3.15;;;1.10;;
72408;SDS011;60402;48.082;11.628;2022-10-17T01:28:04;2.65;;;1.30;;
72408;SDS011;60402;48.082;11.628;2022-10-17T01:33:47;4.85;;;1.60;;
72408;SDS011;60402;48.082;11.628;2022-10-17T01:39:23;4.25;;;1.40;;
72408;SDS011;60402;48.082;11.628;2022-10-17T01:42:04;3.20;;;1.33;;
72408;SDS011;60402;48.082;11.628;2022-10-17T01:44:37;5.95;;;1.63;;
72408;SDS011;60402;48.082;11.628;2022-10-17T01:47:09;2.63;;;1.30;;
72408;SDS011;60402;48.082;11.628;2022-10-17T01:49:38;3.50;;;1.60;;
72408;SDS011;60402;48.082;11.628;2022-10-17T01:52:08;8.00;;;1.88;;
72408;SDS011;60402;48.082;11.628;2022-10-17T01:55:12;4.07;;;1.30;;
72408;SDS011;60402;48.082;11.628;2022-10-17T01:57:38;3.58;;;1.50;;
72408;SDS011;60402;48.082;11.628;2022-10-17T02:00:08;2.40;;;1.20;;
72408;SDS011;60402;48.082;11.628;2022-10-17T02:02:39;5.63;;;1.50;;
72408;SDS011;60402;48.082;11.628;2022-10-17T02:05:06;2.95;;;1.25;;
72408;SDS011;60402;48.082;11.628;2022-10-17T02:07:32;5.07;;;1.25;;
72408;SDS011;60402;48.082;11.628;2022-10-17T02:09:57;3.78;;;1.40;;
72408;SDS011;60402;48.082;11.628;2022-10-17T02:12:26;4.00;;;1.37;;
72408;SDS011;60402;48.082;11.628;2022-10-17T02:21:17;3.50;;;1.30;;
72408;SDS011;60402;48.082;11.628;2022-10-17T02:24:04;4.00;;;1.08;;
72408;SDS011;60402;48.082;11.628;2022-10-17T02:29:08;3.65;;;1.23;;
72408;SDS011;60402;48.082;11.628;2022-10-17T02:31:50;3.40;;;1.40;;
72408;SDS011;60402;48.082;11.628;2022-10-17T02:34:38;2.83;;;1.30;;
72408;SDS011;60402;48.082;11.628;2022-10-17T02:37:09;3.72;;;1.33;;
72408;SDS011;60402;48.082;11.628;2022-10-17T02:39:37;2.25;;;1.05;;
72408;SDS011;60402;48.082;11.628;2022-10-17T02:42:05;4.20;;;1.60;;
72408;SDS011;60402;48.082;11.628;2022-10-17T02:44:34;7.28;;;1.45;;
72408;SDS011;60402;48.082;11.628;2022-10-17T02:47:49;3.78;;;1.20;;
72408;SDS011;60402;48.082;11.628;2022-10-17T02:49:59;2.83;;;1.15;;
72408;SDS011;60402;48.082;11.628;2022-10-17T02:52:36;3.03;;;1.35;;
72408;SDS011;60402;48.082;11.628;2022-10-17T02:55:16;4.15;;;1.13;;
72408;SDS011;60402;48.082;11.628;2022-10-17T02:57:47;4.00;;;1.17;;
72408;SDS011;60402;48.082;11.628;2022-10-17T03:00:16;3.08;;;1.30;;
72408;SDS011;60402;48.082;11.628;2022-10-17T03:02:43;3.00;;;1.40;;
72408;SDS011;60402;48.082;11.628;2022-10-17T03:05:15;3.63;;;1.30;;
72408;SDS011;60402;48.082;11.628;2022-10-17T03:07:48;4.70;;;1.50;;
72408;SDS011;60402;48.082;11.628;2022-10-17T03:10:14;2.28;;;1.00;;
72408;SDS011;60402;48.082;11.628;2022-10-17T03:12:40;3.50;;;1.30;;
72408;SDS011;60402;48.082;11.628;2022-10-17T03:15:06;3.80;;;1.30;;
72408;SDS011;60402;48.082;11.628;2022-10-17T03:17:32;2.92;;;1.15;;
72408;SDS011;60402;48.082;11.628;2022-10-17T03:19:57;3.58;;;1.70;;
72408;SDS011;60402;48.082;11.628;2022-10-17T03:22:22;2.10;;;1.08;;
72408;SDS011;60402;48.082;11.628;2022-10-17T03:24:48;2.85;;;1.13;;
72408;SDS011;60402;48.082;11.628;2022-10-17T03:27:13;3.80;;;1.30;;
72408;SDS011;60402;48.082;11.628;2022-10-17T03:29:38;6.05;;;1.58;;
72408;SDS011;60402;48.082;11.628;2022-10-17T03:32:04;4.10;;;1.27;;
72408;SDS011;60402;48.082;11.628;2022-10-17T03:34:29;2.22;;;1.20;;
72408;SDS011;60402;48.082;11.628;2022-10-17T03:36:54;3.23;;;1.27;;
72408;SDS011;60402;48.082;11.628;2022-10-17T03:39:19;3.65;;;1.30;;
72408;SDS011;60402;48.082;11.628;2022-10-17T03:41:45;6.15;;;1.20;;
72408;SDS011;60402;48.082;11.628;2022-10-17T03:44:10;4.32;;;1.30;;
72408;SDS011;60402;48.082;11.628;2022-10-17T03:46:36;7.18;;;1.70;;
72408;SDS011;60402;48.082;11.628;2022-10-17T03:49:01;3.75;;;1.33;;
72408;SDS011;60402;48.082;11.628;2022-10-17T03:51:26;3.00;;;1.35;;
72408;SDS011;60402;48.082;11.628;2022-10-17T03:53:52;3.78;;;1.13;;
72408;SDS011;60402;48.082;11.628;2022-10-17T03:56:18;5.00;;;1.17;;
72408;SDS011;60402;48.082;11.628;2022-10-17T03:58:45;2.72;;;1.10;;
72408;SDS011;60402;48.082;11.628;2022-10-17T04:01:12;6.90;;;1.60;;
72408;SDS011;60402;48.082;11.628;2022-10-17T04:03:39;1.95;;;1.10;;
72408;SDS011;60402;48.082;11.628;2022-10-17T04:06:05;4.45;;;1.40;;
72408;SDS011;60402;48.082;11.628;2022-10-17T04:08:31;3.40;;;1.40;;
72408;SDS011;60402;48.082;11.628;2022-10-17T04:11:00;4.43;;;1.85;;
72408;SDS011;60402;48.082;11.628;2022-10-17T04:13:26;4.63;;;1.70;;
72408;SDS011;60402;48.082;11.628;2022-10-17T04:15:56;2.53;;;1.50;;
72408;SDS011;60402;48.082;11.628;2022-10-17T04:18:23;4.50;;;1.50;;
72408;SDS011;60402;48.082;11.628;2022-10-17T04:20:49;3.15;;;1.17;;
72408;SDS011;60402;48.082;11.628;2022-10-17T04:23:15;2.72;;;1.20;;
72408;SDS011;60402;48.082;11.628;2022-10-17T04:25:40;2.78;;;1.23;;
72408;SDS011;60402;48.082;11.628;2022-10-17T04:28:05;4.75;;;1.50;;
72408;SDS011;60402;48.082;11.628;2022-10-17T04:30:31;4.07;;;1.58;;
72408;SDS011;60402;48.082;11.628;2022-10-17T04:32:56;4.20;;;1.42;;
72408;SDS011;60402;48.082;11.628;2022-10-17T04:35:21;3.45;;;1.20;;
72408;SDS011;60402;48.082;11.628;2022-10-17T04:37:47;3.72;;;1.13;;
72408;SDS011;60402;48.082;11.628;2022-10-17T04:40:12;3.30;;;1.40;;
72408;SDS011;60402;48.082;11.628;2022-10-17T04:42:37;3.63;;;1.35;;
72408;SDS011;60402;48.082;11.628;2022-10-17T04:45:03;3.10;;;1.20;;
72408;SDS011;60402;48.082;11.628;2022-10-17T04:47:29;3.47;;;1.33;;
72408;SDS011;60402;48.082;11.628;2022-10-17T04:49:54;2.67;;;1.20;;
72408;SDS011;60402;48.082;11.628;2022-10-17T04:52:19;4.05;;;1.50;;
72408;SDS011;60402;48.082;11.628;2022-10-17T04:54:45;4.20;;;1.13;;
72408;SDS011;60402;48.082;11.628;2022-10-17T04:57:10;3.95;;;1.33;;
72408;SDS011;60402;48.082;11.628;2022-10-17T04:59:36;3.95;;;1.20;;
72408;SDS011;60402;48.082;11.628;2022-10-17T05:02:01;7.55;;;1.80;;
72408;SDS011;60402;48.082;11.628;2022-10-17T05:04:26;3.42;;;1.23;;
72408;SDS011;60402;48.082;11.628;2022-10-17T05:06:52;5.00;;;1.50;;
72408;SDS011;60402;48.082;11.628;2022-10-17T05:09:17;4.10;;;1.40;;
72408;SDS011;60402;48.082;11.628;2022-10-17T05:11:42;7.28;;;1.77;;
72408;SDS011;60402;48.082;11.628;2022-10-17T05:14:07;3.73;;;1.37;;
72408;SDS011;60402;48.082;11.628;2022-10-17T05:16:33;4.40;;;1.63;;
72408;SDS011;60402;48.082;11.628;2022-10-17T05:19:02;3.22;;;1.30;;
72408;SDS011;60402;48.082;11.628;2022-10-17T05:21:27;3.53;;;1.35;;
72408;SDS011;60402;48.082;11.628;2022-10-17T05:23:54;4.82;;;1.50;;
72408;SDS011;60402;48.082;11.628;2022-10-17T05:26:20;4.07;;;1.50;;
72408;SDS011;60402;48.082;11.628;2022-10-17T05:28:45;3.88;;;1.30;;
72408;SDS011;60402;48.082;11.628;2022-10-17T05:31:11;2.85;;;1.17;;
72408;SDS011;60402;48.082;11.628;2022-10-17T05:33:37;4.88;;;1.60;;
72408;SDS011;60402;48.082;11.628;2022-10-17T05:36:03;3.70;;;1.35;;
72408;SDS011;60402;48.082;11.628;2022-10-17T05:38:29;3.70;;;1.40;;
72408;SDS011;60402;48.082;11.628;2022-10-17T05:40:58;7.60;;;1.90;;
72408;SDS011;60402;48.082;11.628;2022-10-17T05:43:24;5.90;;;2.58;;
72408;SDS011;60402;48.082;11.628;2022-10-17T05:45:50;5.45;;;2.38;;
72408;SDS011;60402;48.082;11.628;2022-10-17T05:48:15;4.40;;;1.60;;
72408;SDS011;60402;48.082;11.628;2022-10-17T05:50:41;4.53;;;1.90;;
72408;SDS011;60402;48.082;11.628;2022-10-17T05:53:06;4.50;;;1.55;;
72408;SDS011;60402;48.082;11.628;2022-10-17T05:55:31;7.78;;;2.13;;
72408;SDS011;60402;48.082;11.628;2022-10-17T05:57:58;6.53;;;1.85;;
72408;SDS011;60402;48.082;11.628;2022-10-17T06:00:24;5.30;;;1.40;;
72408;SDS011;60402;48.082;11.628;2022-10-17T06:02:49;8.05;;;1.83;;
72408;SDS011;60402;48.082;11.628;2022-10-17T06:05:15;5.30;;;1.50;;
72408;SDS011;60402;48.082;11.628;2022-10-17T06:07:40;5.20;;;1.77;;
72408;SDS011;60402;48.082;11.628;2022-10-17T06:10:05;6.82;;;2.10;;
72408;SDS011;60402;48.082;11.628;2022-10-17T06:12:31;3.92;;;1.83;;
72408;SDS011;60402;48.082;11.628;2022-10-17T06:14:56;6.05;;;2.20;;
72408;SDS011;60402;48.082;11.628;2022-10-17T06:17:22;9.43;;;2.97;;
72408;SDS011;60402;48.082;11.628;2022-10-17T06:19:47;4.82;;;2.10;;
72408;SDS011;60402;48.082;11.628;2022-10-17T06:22:12;5.30;;;2.20;;
72408;SDS011;60402;48.082;11.628;2022-10-17T06:24:38;3.88;;;1.85;;
72408;SDS011;60402;48.082;11.628;2022-10-17T06:27:03;5.13;;;2.05;;
72408;SDS011;60402;48.082;11.628;2022-10-17T06:29:28;4.60;;;1.92;;
72408;SDS011;60402;48.082;11.628;2022-10-17T06:31:54;5.97;;;2.20;;
72408;SDS011;60402;48.082;11.628;2022-10-17T06:34:19;75.03;;;19.77;;
72408;SDS011;60402;48.082;11.628;2022-10-17T06:36:45;61.70;;;17.13;;
72408;SDS011;60402;48.082;11.628;2022-10-17T06:39:10;87.78;;;24.00;;
72408;SDS011;60402;48.082;11.628;2022-10-17T06:41:36;63.42;;;17.70;;
72408;SDS011;60402;48.082;11.628;2022-10-17T06:44:02;13.18;;;3.90;;
72408;SDS011;60402;48.082;11.628;2022-10-17T06:46:33;8.82;;;2.50;;
72408;SDS011;60402;48.082;11.628;2022-10-17T06:48:58;6.93;;;2.10;;
72408;SDS011;60402;48.082;11.628;2022-10-17T06:51:24;9.10;;;2.63;;
72408;SDS011;60402;48.082;11.628;2022-10-17T06:53:49;8.68;;;2.47;;
72408;SDS011;60402;48.082;11.628;2022-10-17T06:56:14;7.68;;;2.35;;
72408;SDS011;60402;48.082;11.628;2022-10-17T06:58:40;7.57;;;2.33;;
72408;SDS011;60402;48.082;11.628;2022-10-17T07:01:09;5.57;;;1.70;;
72408;SDS011;60402;48.082;11.628;2022-10-17T07:03:36;5.05;;;1.95;;
72408;SDS011;60402;48.082;11.628;2022-10-17T07:06:02;5.63;;;1.80;;
72408;SDS011;60402;48.082;11.628;2022-10-17T07:08:28;4.90;;;2.00;;
72408;SDS011;60402;48.082;11.628;2022-10-17T07:10:54;5.18;;;1.88;;
72408;SDS011;60402;48.082;11.628;2022-10-17T07:13:20;3.83;;;1.70;;
72408;SDS011;60402;48.082;11.628;2022-10-17T07:15:45;4.45;;;1.50;;
72408;SDS011;60402;48.082;11.628;2022-10-17T07:18:11;3.70;;;1.52;;
72408;SDS011;60402;48.082;11.628;2022-10-17T07:20:37;4.35;;;1.83;;
72408;SDS011;60402;48.082;11.628;2022-10-17T07:23:02;4.43;;;1.50;;
72408;SDS011;60402;48.082;11.628;2022-10-17T07:25:28;3.35;;;1.50;;
72408;SDS011;60402;48.082;11.628;2022-10-17T07:27:54;5.70;;;1.75;;
72408;SDS011;60402;48.082;11.628;2022-10-17T07:30:19;5.63;;;1.55;;
72408;SDS011;60402;48.082;11.628;2022-10-17T07:32:45;3.80;;;1.63;;
72408;SDS011;60402;48.082;11.628;2022-10-17T07:35:11;3.40;;;1.35;;
72408;SDS011;60402;48.082;11.628;2022-10-17T07:37:37;4.15;;;1.58;;
72408;SDS011;60402;48.082;11.628;2022-10-17T07:40:04;4.10;;;1.75;;
72408;SDS011;60402;48.082;11.628;2022-10-17T07:42:32;4.25;;;1.77;;
72408;SDS011;60402;48.082;11.628;2022-10-17T07:44:59;4.30;;;1.77;;
72408;SDS011;60402;48.082;11.628;2022-10-17T07:47:28;5.20;;;1.70;;
72408;SDS011;60402;48.082;11.628;2022-10-17T07:49:57;5.30;;;1.40;;
72408;SDS011;60402;48.082;11.628;2022-10-17T07:52:25;3.25;;;1.63;;
72408;SDS011;60402;48.082;11.628;2022-10-17T07:54:51;3.20;;;1.42;;
72408;SDS011;60402;48.082;11.628;2022-10-17T07:57:16;3.00;;;1.50;;
72408;SDS011;60402;48.082;11.628;2022-10-17T07:59:41;3.87;;;1.70;;
72408;SDS011;60402;48.082;11.628;2022-10-17T08:02:08;3.92;;;1.70;;
72408;SDS011;60402;48.082;11.628;2022-10-17T08:04:43;3.38;;;1.70;;
72408;SDS011;60402;48.082;11.628;2022-10-17T08:07:08;4.83;;;1.73;;
72408;SDS011;60402;48.082;11.628;2022-10-17T08:09:33;3.50;;;1.80;;
72408;SDS011;60402;48.082;11.628;2022-10-17T08:11:59;4.28;;;1.70;;
72408;SDS011;60402;48.082;11.628;2022-10-17T08:14:24;4.95;;;1.77;;
72408;SDS011;60402;48.082;11.628;2022-10-17T08:16:49;4.93;;;1.80;;
72408;SDS011;60402;48.082;11.628;2022-10-17T08:19:14;4.20;;;1.70;;
72408;SDS011;60402;48.082;11.628;2022-10-17T08:21:40;5.70;;;1.90;;
72408;SDS011;60402;48.082;11.628;2022-10-17T08:24:05;3.72;;;1.85;;
72408;SDS011;60402;48.082;11.628;2022-10-17T08:26:30;4.30;;;1.70;;
72408;SDS011;60402;48.082;11.628;2022-10-17T08:28:59;2.65;;;1.50;;
72408;SDS011;60402;48.082;11.628;2022-10-17T08:31:24;3.67;;;1.50;;
72408;SDS011;60402;48.082;11.628;2022-10-17T08:33:50;4.13;;;1.65;;
72408;SDS011;60402;48.082;11.628;2022-10-17T08:36:16;3.67;;;1.50;;
72408;SDS011;60402;48.082;11.628;2022-10-17T08:38:43;2.90;;;1.60;;
72408;SDS011;60402;48.082;11.628;2022-10-17T08:46:55;2.78;;;1.35;;
72408;SDS011;60402;48.082;11.628;2022-10-17T08:49:37;3.72;;;1.58;;
72408;SDS011;60402;48.082;11.628;2022-10-17T08:52:53;2.35;;;1.33;;
72408;SDS011;60402;48.082;11.628;2022-10-17T08:55:12;4.07;;;1.50;;
72408;SDS011;60402;48.082;11.628;2022-10-17T08:57:40;2.92;;;1.50;;
72408;SDS011;60402;48.082;11.628;2022-10-17T09:00:10;3.85;;;1.52;;
72408;SDS011;60402;48.082;11.628;2022-10-17T09:07:55;3.35;;;1.63;;
72408;SDS011;60402;48.082;11.628;2022-10-17T09:16:03;3.33;;;1.52;;
72408;SDS011;60402;48.082;11.628;2022-10-17T09:18:39;11.68;;;5.78;;
72408;SDS011;60402;48.082;11.628;2022-10-17T09:24:01;6.38;;;2.55;;
72408;SDS011;60402;48.082;11.628;2022-10-17T09:26:30;3.08;;;1.50;;
72408;SDS011;60402;48.082;11.628;2022-10-17T09:28:56;2.80;;;1.50;;
72408;SDS011;60402;48.082;11.628;2022-10-17T09:31:25;2.85;;;1.58;;
72408;SDS011;60402;48.082;11.628;2022-10-17T09:33:56;3.05;;;1.42;;
72408;SDS011;60402;48.082;11.628;2022-10-17T09:39:06;5.65;;;2.50;;
72408;SDS011;60402;48.082;11.628;2022-10-17T09:41:46;5.15;;;1.90;;
72408;SDS011;60402;48.082;11.628;2022-10-17T09:50:22;2.55;;;1.42;;
72408;SDS011;60402;48.082;11.628;2022-10-17T09:52:51;3.92;;;1.60;;
72408;SDS011;60402;48.082;11.628;2022-10-17T09:58:08;4.35;;;1.48;;
72408;SDS011;60402;48.082;11.628;2022-10-17T10:14:23;6.28;;;1.80;;
72408;SDS011;60402;48.082;11.628;2022-10-17T10:16:52;4.15;;;1.50;;
72408;SDS011;60402;48.082;11.628;2022-10-17T10:19:19;2.90;;;1.55;;
72408;SDS011;60402;48.082;11.628;2022-10-17T10:22:34;2.50;;;1.20;;
72408;SDS011;60402;48.082;11.628;2022-10-17T10:25:13;2.90;;;1.35;;
72408;SDS011;60402;48.082;11.628;2022-10-17T10:27:41;3.15;;;1.40;;
72408;SDS011;60402;48.082;11.628;2022-10-17T10:30:19;4.50;;;1.55;;
72408;SDS011;60402;48.082;11.628;2022-10-17T10:32:49;4.10;;;1.50;;
72408;SDS011;60402;48.082;11.628;2022-10-17T10:35:19;3.38;;;1.60;;
72408;SDS011;60402;48.082;11.628;2022-10-17T10:37:48;3.60;;;1.73;;
72408;SDS011;60402;48.082;11.628;2022-10-17T10:40:23;4.28;;;1.50;;
72408;SDS011;60402;48.082;11.628;2022-10-17T10:42:53;6.15;;;1.63;;
72408;SDS011;60402;48.082;11.628;2022-10-17T10:45:25;4.47;;;1.30;;
72408;SDS011;60402;48.082;11.628;2022-10-17T10:50:24;4.13;;;1.40;;
72408;SDS011;60402;48.082;11.628;2022-10-17T10:55:41;4.28;;;1.73;;
72408;SDS011;60402;48.082;11.628;2022-10-17T10:58:19;5.25;;;1.50;;
72408;SDS011;60402;48.082;11.628;2022-10-17T11:00:55;4.28;;;1.60;;
72408;SDS011;60402;48.082;11.628;2022-10-17T11:03:25;3.03;;;1.35;;
72408;SDS011;60402;48.082;11.628;2022-10-17T11:05:59;5.28;;;1.70;;
72408;SDS011;60402;48.082;11.628;2022-10-17T11:08:37;3.63;;;1.70;;
72408;SDS011;60402;48.082;11.628;2022-10-17T11:11:15;4.90;;;1.40;;
72408;SDS011;60402;48.082;11.628;2022-10-17T11:13:52;4.97;;;1.58;;
72408;SDS011;60402;48.082;11.628;2022-10-17T11:16:33;3.35;;;1.42;;
72408;SDS011;60402;48.082;11.628;2022-10-17T11:19:07;4.18;;;1.40;;
72408;SDS011;60402;48.082;11.628;2022-10-17T11:21:54;3.17;;;1.33;;
72408;SDS011;60402;48.082;11.628;2022-10-17T11:25:04;5.07;;;1.45;;
72408;SDS011;60402;48.082;11.628;2022-10-17T11:27:27;3.47;;;1.40;;
72408;SDS011;60402;48.082;11.628;2022-10-17T11:29:54;4.97;;;1.50;;
72408;SDS011;60402;48.082;11.628;2022-10-17T11:32:37;3.03;;;1.10;;
72408;SDS011;60402;48.082;11.628;2022-10-17T11:35:14;5.28;;;1.42;;
72408;SDS011;60402;48.082;11.628;2022-10-17T11:38:15;4.78;;;1.27;;
72408;SDS011;60402;48.082;11.628;2022-10-17T11:40:46;2.63;;;1.60;;
72408;SDS011;60402;48.082;11.628;2022-10-17T11:43:17;3.60;;;1.30;;
72408;SDS011;60402;48.082;11.628;2022-10-17T11:45:51;2.90;;;1.27;;
72408;SDS011;60402;48.082;11.628;2022-10-17T11:48:25;4.55;;;1.25;;
72408;SDS011;60402;48.082;11.628;2022-10-17T11:51:14;3.28;;;1.45;;
72408;SDS011;60402;48.082;11.628;2022-10-17T11:53:50;2.67;;;1.20;;
72408;SDS011;60402;48.082;11.628;2022-10-17T11:56:50;3.92;;;1.50;;
72408;SDS011;60402;48.082;11.628;2022-10-17T11:59:24;3.53;;;1.38;;
72408;SDS011;60402;48.082;11.628;2022-10-17T12:01:53;3.60;;;1.45;;
72408;SDS011;60402;48.082;11.628;2022-10-17T12:04:29;2.78;;;1.20;;
72408;SDS011;60402;48.082;11.628;2022-10-17T12:07:16;3.63;;;1.35;;
72408;SDS011;60402;48.082;11.628;2022-10-17T12:09:51;4.20;;;1.40;;
72408;SDS011;60402;48.082;11.628;2022-10-17T12:12:44;2.95;;;1.23;;
72408;SDS011;60402;48.082;11.628;2022-10-17T12:17:44;3.90;;;1.42;;
72408;SDS011;60402;48.082;11.628;2022-10-17T12:25:24;4.47;;;1.17;;
72408;SDS011;60402;48.082;11.628;2022-10-17T12:30:51;5.70;;;1.30;;
72408;SDS011;60402;48.082;11.628;2022-10-17T12:38:41;3.30;;;1.10;;
72408;SDS011;60402;48.082;11.628;2022-10-17T12:41:11;2.35;;;1.13;;
72408;SDS011;60402;48.082;11.628;2022-10-17T12:46:07;1.70;;;0.95;;
72408;SDS011;60402;48.082;11.628;2022-10-17T12:53:48;4.57;;;1.42;;
72408;SDS011;60402;48.082;11.628;2022-10-17T12:56:34;4.82;;;1.33;;
72408;SDS011;60402;48.082;11.628;2022-10-17T12:59:07;2.35;;;1.00;;
72408;SDS011;60402;48.082;11.628;2022-10-17T13:01:37;4.00;;;1.25;;
72408;SDS011;60402;48.082;11.628;2022-10-17T13:04:08;3.22;;;1.65;;
72408;SDS011;60402;48.082;11.628;2022-10-17T13:06:35;2.75;;;1.27;;
72408;SDS011;60402;48.082;11.628;2022-10-17T13:11:47;3.33;;;1.40;;
72408;SDS011;60402;48.082;11.628;2022-10-17T13:14:13;3.53;;;1.48;;
72408;SDS011;60402;48.082;11.628;2022-10-17T13:17:02;3.28;;;1.50;;
72408;SDS011;60402;48.082;11.628;2022-10-17T13:19:42;2.13;;;1.13;;
72408;SDS011;60402;48.082;11.628;2022-10-17T13:22:10;5.25;;;1.38;;
72408;SDS011;60402;48.082;11.628;2022-10-17T13:24:39;4.30;;;1.50;;
72408;SDS011;60402;48.082;11.628;2022-10-17T13:27:19;3.85;;;1.40;;
72408;SDS011;60402;48.082;11.628;2022-10-17T13:29:45;3.40;;;1.05;;
72408;SDS011;60402;48.082;11.628;2022-10-17T13:32:10;2.75;;;1.35;;
72408;SDS011;60402;48.082;11.628;2022-10-17T13:34:36;2.35;;;1.10;;
72408;SDS011;60402;48.082;11.628;2022-10-17T13:37:03;2.55;;;1.40;;
72408;SDS011;60402;48.082;11.628;2022-10-17T13:42:00;2.42;;;1.08;;
72408;SDS011;60402;48.082;11.628;2022-10-17T13:44:26;2.45;;;1.27;;
72408;SDS011;60402;48.082;11.628;2022-10-17T13:46:56;2.22;;;1.15;;
72408;SDS011;60402;48.082;11.628;2022-10-17T13:49:32;2.92;;;1.00;;
72408;SDS011;60402;48.082;11.628;2022-10-17T13:52:01;1.75;;;1.00;;
72408;SDS011;60402;48.082;11.628;2022-10-17T13:54:39;2.70;;;1.20;;
72408;SDS011;60402;48.082;11.628;2022-10-17T13:57:27;2.53;;;1.20;;
72408;SDS011;60402;48.082;11.628;2022-10-17T14:00:03;1.92;;;0.98;;
72408;SDS011;60402;48.082;11.628;2022-10-17T14:02:32;3.75;;;1.55;;
72408;SDS011;60402;48.082;11.628;2022-10-17T14:05:19;1.75;;;1.10;;
72408;SDS011;60402;48.082;11.628;2022-10-17T14:07:51;2.38;;;1.08;;
72408;SDS011;60402;48.082;11.628;2022-10-17T14:13:03;3.05;;;1.30;;
72408;SDS011;60402;48.082;11.628;2022-10-17T14:15:33;3.33;;;1.10;;
72408;SDS011;60402;48.082;11.628;2022-10-17T14:18:03;4.38;;;1.17;;
72408;SDS011;60402;48.082;11.628;2022-10-17T14:20:30;2.28;;;1.10;;
72408;SDS011;60402;48.082;11.628;2022-10-17T14:22:58;3.55;;;1.10;;
72408;SDS011;60402;48.082;11.628;2022-10-17T14:25:25;2.67;;;1.20;;
72408;SDS011;60402;48.082;11.628;2022-10-17T14:30:40;3.28;;;1.30;;
72408;SDS011;60402;48.082;11.628;2022-10-17T14:33:14;2.63;;;1.42;;
72408;SDS011;60402;48.082;11.628;2022-10-17T14:35:53;2.88;;;1.20;;
72408;SDS011;60402;48.082;11.628;2022-10-17T14:38:20;2.65;;;1.20;;
72408;SDS011;60402;48.082;11.628;2022-10-17T14:41:21;2.55;;;1.15;;
72408;SDS011;60402;48.082;11.628;2022-10-17T14:43:56;4.63;;;1.30;;
72408;SDS011;60402;48.082;11.628;2022-10-17T14:46:23;3.05;;;1.08;;
72408;SDS011;60402;48.082;11.628;2022-10-17T14:48:53;2.65;;;1.20;;
72408;SDS011;60402;48.082;11.628;2022-10-17T14:51:21;2.03;;;1.00;;
72408;SDS011;60402;48.082;11.628;2022-10-17T14:54:03;3.90;;;1.10;;
72408;SDS011;60402;48.082;11.628;2022-10-17T14:56:42;2.42;;;0.90;;
72408;SDS011;60402;48.082;11.628;2022-10-17T14:59:14;3.05;;;1.20;;
72408;SDS011;60402;48.082;11.628;2022-10-17T15:01:41;2.28;;;1.08;;
72408;SDS011;60402;48.082;11.628;2022-10-17T15:04:06;2.15;;;1.08;;
72408;SDS011;60402;48.082;11.628;2022-10-17T15:06:34;3.72;;;1.15;;
72408;SDS011;60402;48.082;11.628;2022-10-17T15:09:00;3.42;;;1.30;;
72408;SDS011;60402;48.082;11.628;2022-10-17T15:11:25;3.03;;;1.30;;
72408;SDS011;60402;48.082;11.628;2022-10-17T15:13:51;3.15;;;1.45;;
72408;SDS011;60402;48.082;11.628;2022-10-17T15:16:18;2.58;;;1.20;;
72408;SDS011;60402;48.082;11.628;2022-10-17T15:18:48;3.55;;;1.42;;
72408;SDS011;60402;48.082;11.628;2022-10-17T15:21:17;3.63;;;1.38;;
72408;SDS011;60402;48.082;11.628;2022-10-17T15:23:45;3.63;;;1.35;;
72408;SDS011;60402;48.082;11.628;2022-10-17T15:26:12;3.08;;;1.30;;
72408;SDS011;60402;48.082;11.628;2022-10-17T15:28:39;3.75;;;1.30;;
72408;SDS011;60402;48.082;11.628;2022-10-17T15:31:05;2.75;;;1.25;;
72408;SDS011;60402;48.082;11.628;2022-10-17T15:33:32;2.47;;;1.20;;
72408;SDS011;60402;48.082;11.628;2022-10-17T15:35:58;4.63;;;1.33;;
72408;SDS011;60402;48.082;11.628;2022-10-17T15:38:23;3.40;;;1.20;;
72408;SDS011;60402;48.082;11.628;2022-10-17T15:40:48;4.80;;;1.52;;
72408;SDS011;60402;48.082;11.628;2022-10-17T15:43:15;3.65;;;1.30;;
72408;SDS011;60402;48.082;11.628;2022-10-17T15:45:41;4.72;;;1.40;;
72408;SDS011;60402;48.082;11.628;2022-10-17T15:48:06;4.13;;;1.30;;
72408;SDS011;60402;48.082;11.628;2022-10-17T15:50:40;3.67;;;1.40;;
72408;SDS011;60402;48.082;11.628;2022-10-17T15:53:07;3.10;;;1.50;;
72408;SDS011;60402;48.082;11.628;2022-10-17T15:55:35;4.13;;;1.52;;
72408;SDS011;60402;48.082;11.628;2022-10-17T15:58:01;3.58;;;1.30;;
72408;SDS011;60402;48.082;11.628;2022-10-17T16:00:26;3.45;;;1.40;;
72408;SDS011;60402;48.082;11.628;2022-10-17T16:02:51;4.43;;;1.90;;
72408;SDS011;60402;48.082;11.628;2022-10-17T16:05:20;2.70;;;1.20;;
72408;SDS011;60402;48.082;11.628;2022-10-17T16:07:47;3.00;;;1.52;;
72408;SDS011;60402;48.082;11.628;2022-10-17T16:10:13;3.97;;;1.65;;
72408;SDS011;60402;48.082;11.628;2022-10-17T16:12:40;4.40;;;1.60;;
72408;SDS011;60402;48.082;11.628;2022-10-17T16:15:13;4.95;;;1.90;;
72408;SDS011;60402;48.082;11.628;2022-10-17T16:17:40;4.25;;;1.90;;
72408;SDS011;60402;48.082;11.628;2022-10-17T16:20:06;4.57;;;1.70;;
72408;SDS011;60402;48.082;11.628;2022-10-17T16:22:32;3.92;;;1.50;;
72408;SDS011;60402;48.082;11.628;2022-10-17T16:25:03;5.18;;;1.70;;
72408;SDS011;60402;48.082;11.628;2022-10-17T16:27:37;5.20;;;1.50;;
72408;SDS011;60402;48.082;11.628;2022-10-17T16:30:03;3.85;;;1.60;;
72408;SDS011;60402;48.082;11.628;2022-10-17T16:32:30;5.85;;;1.70;;
72408;SDS011;60402;48.082;11.628;2022-10-17T16:34:56;4.47;;;1.80;;
72408;SDS011;60402;48.082;11.628;2022-10-17T16:37:23;8.25;;;1.90;;
72408;SDS011;60402;48.082;11.628;2022-10-17T16:39:48;4.28;;;1.48;;
72408;SDS011;60402;48.082;11.628;2022-10-17T16:42:16;4.70;;;1.80;;